createdAt,value
2023-02-09T00:06:36.907Z,7.10
2023-02-09T00:16:39.945Z,6.83
2023-02-09T00:26:42.874Z,5.83
2023-02-09T00:36:45.265Z,7.33
2023-02-09T00:46:48.945Z,8.77
2023-02-09T00:56:51.202Z,7.70
2023-02-09T01:06:53.585Z,7.30
2023-02-09T01:16:56.241Z,6.20
2023-02-09T01:27:01.386Z,5.80
2023-02-09T01:37:03.808Z,5.23
2023-02-09T01:47:06.227Z,5.10
2023-02-09T01:57:12.396Z,4.70
2023-02-09T02:07:22.302Z,4.63
2023-02-09T02:17:43.213Z,5.20
2023-02-09T02:28:39.124Z,4.50
2023-02-09T02:38:54.546Z,5.07
2023-02-09T02:48:59.538Z,5.30
2023-02-09T02:59:03.971Z,4.97
2023-02-09T03:09:06.641Z,5.43
2023-02-09T03:19:37.028Z,5.47
2023-02-09T03:29:39.965Z,5.53
2023-02-09T03:39:42.335Z,5.67
2023-02-09T03:49:45.481Z,5.47
2023-02-09T03:59:47.804Z,5.57
2023-02-09T04:09:50.157Z,5.03
2023-02-09T04:19:52.508Z,5.30
2023-02-09T04:29:54.883Z,5.57
2023-02-09T04:39:57.056Z,5.80
2023-02-09T04:50:00.396Z,6.10
2023-02-09T05:00:03.173Z,6.57
2023-02-09T05:10:05.731Z,5.80
2023-02-09T05:20:08.655Z,6.93
2023-02-09T05:30:11.274Z,6.43
2023-02-09T05:40:14.041Z,6.53
2023-02-09T05:50:16.766Z,6.83
2023-02-09T06:00:23.738Z,8.23
2023-02-09T06:10:25.823Z,6.67
2023-02-09T06:20:27.965Z,7.13
2023-02-09T06:30:30.065Z,6.33
2023-02-09T06:40:32.442Z,6.33
2023-02-09T06:50:36.527Z,7.50
2023-02-09T07:00:39.788Z,7.50
2023-02-09T07:10:41.859Z,7.23
2023-02-09T07:20:44.190Z,7.17
2023-02-09T07:30:51.917Z,8.03
2023-02-09T07:40:54.086Z,6.90
2023-02-09T07:50:56.229Z,7.07
2023-02-09T08:01:04.366Z,6.63
2023-02-09T08:11:06.849Z,7.27
2023-02-09T08:21:11.840Z,7.30
2023-02-09T08:31:18.745Z,7.53
2023-02-09T08:41:21.986Z,7.30
2023-02-09T08:51:24.082Z,7.10
2023-02-09T09:01:26.332Z,7.17
2023-02-09T09:11:29.929Z,7.50
2023-02-09T09:21:33.284Z,7.57
2023-02-09T09:31:35.589Z,7.47
2023-02-09T09:41:38.520Z,7.27
2023-02-09T09:51:43.320Z,7.67
2023-02-09T10:01:45.891Z,6.83
2023-02-09T10:12:06.685Z,6.67
2023-02-09T10:22:13.634Z,6.53
2023-02-09T10:32:29.484Z,6.57
2023-02-09T10:42:33.878Z,6.60
2023-02-09T10:52:40.110Z,6.43
2023-02-09T11:02:48.415Z,6.47
2023-02-09T11:12:50.471Z,6.43
2023-02-09T11:23:04.851Z,6.67
2023-02-09T11:33:27.756Z,5.77
2023-02-09T11:43:37.092Z,5.93
2023-02-09T11:53:47.799Z,6.90
2023-02-09T12:04:03.022Z,5.90
2023-02-09T12:14:28.868Z,5.70
2023-02-09T12:24:38.382Z,5.83
2023-02-09T12:34:49.553Z,5.93
2023-02-09T12:44:54.616Z,6.27
2023-02-09T12:54:57.011Z,5.80
2023-02-09T13:05:04.242Z,5.87
2023-02-09T13:15:13.733Z,6.53
2023-02-09T13:25:34.309Z,6.70
2023-02-09T13:35:57.437Z,7.10
2023-02-09T13:46:00.478Z,6.83
2023-02-09T13:56:02.890Z,5.47
2023-02-09T14:06:21.002Z,5.27
2023-02-09T14:16:24.524Z,4.87
2023-02-09T14:26:29.001Z,6.50
2023-02-09T14:36:34.333Z,5.60
2023-02-09T14:46:47.473Z,5.27
2023-02-09T14:56:50.732Z,5.70
2023-02-09T15:07:02.199Z,5.83
2023-02-09T15:17:12.365Z,5.90
2023-02-09T15:27:27.409Z,5.80
2023-02-09T15:37:34.748Z,6.00
2023-02-09T15:47:49.111Z,6.17
2023-02-09T15:57:53.123Z,6.57
2023-02-09T16:07:56.516Z,6.50
2023-02-09T16:17:59.109Z,6.50
2023-02-09T16:28:01.900Z,7.00
2023-02-09T16:38:15.425Z,7.20
2023-02-09T16:48:21.719Z,7.47
2023-02-09T16:58:23.878Z,8.10
2023-02-09T17:08:32.134Z,8.03
2023-02-09T17:18:39.744Z,8.60
2023-02-09T17:28:43.118Z,9.37
2023-02-09T17:38:45.491Z,8.47
2023-02-09T17:48:49.332Z,10.87
2023-02-09T17:58:51.516Z,8.43
2023-02-09T18:08:53.907Z,8.17
2023-02-09T18:18:56.312Z,8.10
2023-02-09T18:28:58.718Z,9.17
2023-02-09T18:39:01.168Z,8.73
2023-02-09T18:49:03.914Z,9.20
2023-02-09T18:59:06.070Z,8.63
2023-02-09T19:09:08.419Z,9.90
2023-02-09T19:19:13.301Z,9.30
2023-02-09T19:29:16.126Z,10.90
2023-02-09T19:39:19.166Z,10.33
2023-02-09T19:49:22.889Z,10.33
2023-02-09T19:59:25.364Z,11.00
2023-02-09T20:09:28.650Z,11.97
2023-02-09T20:19:31.105Z,13.30
2023-02-09T20:29:34.173Z,13.23
2023-02-09T20:39:36.363Z,13.83
2023-02-09T20:49:40.455Z,14.90
2023-02-09T20:59:42.654Z,14.83
2023-02-09T21:09:44.962Z,15.57
2023-02-09T21:19:47.367Z,15.20
2023-02-09T21:29:49.791Z,17.10
2023-02-09T21:39:52.009Z,15.80
2023-02-09T21:49:54.402Z,17.60
2023-02-09T21:59:56.873Z,18.07
2023-02-09T22:09:59.130Z,18.13
2023-02-09T22:20:01.550Z,20.10
2023-02-09T22:30:04.186Z,19.63
2023-02-09T22:40:06.727Z,19.13
2023-02-09T22:50:09.423Z,20.33
2023-02-09T23:00:13.869Z,21.47
2023-02-09T23:10:17.102Z,20.33
2023-02-09T23:20:19.469Z,20.63
2023-02-09T23:30:21.770Z,20.97
2023-02-09T23:40:23.852Z,21.03
2023-02-09T23:50:26.301Z,21.17
